sensor_id;sensor_type;location;lat;lon;timestamp;pressure;altitude;pressure_sealevel;temperature;humidity
73267;BME280;61495;53.400;7.608;2024-01-30T00:01:02;102591.94;;;6.69;100.00
73267;BME280;61495;53.400;7.608;2024-01-30T00:03:28;102585.09;;;6.67;100.00
73267;BME280;61495;53.400;7.608;2024-01-30T00:05:54;102587.75;;;6.67;100.00
73267;BME280;61495;53.400;7.608;2024-01-30T00:08:20;102583.53;;;6.64;100.00
73267;BME280;61495;53.400;7.608;2024-01-30T00:10:45;102574.28;;;6.59;100.00
73267;BME280;61495;53.400;7.608;2024-01-30T00:13:10;102577.50;;;6.62;100.00
73267;BME280;61495;53.400;7.608;2024-01-30T00:15:36;102584.66;;;6.62;100.00
73267;BME280;61495;53.400;7.608;2024-01-30T00:18:01;102580.44;;;6.59;100.00
73267;BME280;61495;53.400;7.608;2024-01-30T00:20:26;102579.63;;;6.59;100.00
73267;BME280;61495;53.400;7.608;2024-01-30T00:22:52;102579.88;;;6.56;100.00
73267;BME280;61495;53.400;7.608;2024-01-30T00:25:17;102573.72;;;6.55;100.00
73267;BME280;61495;53.400;7.608;2024-01-30T00:27:43;102573.72;;;6.55;100.00
73267;BME280;61495;53.400;7.608;2024-01-30T00:30:08;102568.66;;;6.52;100.00
73267;BME280;61495;53.400;7.608;2024-01-30T00:32:34;102562.50;;;6.52;100.00
73267;BME280;61495;53.400;7.608;2024-01-30T00:34:59;102554.63;;;6.50;100.00
73267;BME280;61495;53.400;7.608;2024-01-30T00:37:25;102552.41;;;6.46;100.00
73267;BME280;61495;53.400;7.608;2024-01-30T00:39:50;102549.03;;;6.44;100.00
73267;BME280;61495;53.400;7.608;2024-01-30T00:42:15;102558.69;;;6.45;100.00
73267;BME280;61495;53.400;7.608;2024-01-30T00:44:41;102553.53;;;6.43;100.00
73267;BME280;61495;53.400;7.608;2024-01-30T00:47:06;102561.63;;;6.42;100.00
73267;BME280;61495;53.400;7.608;2024-01-30T00:49:31;102562.75;;;6.39;100.00
73267;BME280;61495;53.400;7.608;2024-01-30T00:51:57;102562.91;;;6.38;100.00
73267;BME280;61495;53.400;7.608;2024-01-30T00:54:22;102560.34;;;6.36;100.00
73267;BME280;61495;53.400;7.608;2024-01-30T00:56:48;102564.00;;;6.35;100.00
73267;BME280;61495;53.400;7.608;2024-01-30T00:59:13;102564.41;;;6.31;100.00
73267;BME280;61495;53.400;7.608;2024-01-30T01:01:38;102562.72;;;6.30;100.00
73267;BME280;61495;53.400;7.608;2024-01-30T01:04:04;102567.06;;;6.31;100.00
73267;BME280;61495;53.400;7.608;2024-01-30T01:06:29;102569.03;;;6.29;100.00
73267;BME280;61495;53.400;7.608;2024-01-30T01:08:55;102562.19;;;6.26;100.00
73267;BME280;61495;53.400;7.608;2024-01-30T01:11:20;102569.31;;;6.26;100.00
73267;BME280;61495;53.400;7.608;2024-01-30T01:13:45;102559.91;;;6.22;100.00
73267;BME280;61495;53.400;7.608;2024-01-30T01:16:11;102561.88;;;6.20;100.00
73267;BME280;61495;53.400;7.608;2024-01-30T01:18:36;102564.66;;;6.18;100.00
73267;BME280;61495;53.400;7.608;2024-01-30T01:21:01;102559.59;;;6.15;100.00
73267;BME280;61495;53.400;7.608;2024-01-30T01:23:27;102551.78;;;6.13;100.00
73267;BME280;61495;53.400;7.608;2024-01-30T01:25:52;102552.72;;;6.12;100.00
73267;BME280;61495;53.400;7.608;2024-01-30T01:28:18;102557.34;;;6.10;100.00
73267;BME280;61495;53.400;7.608;2024-01-30T01:30:43;102554.81;;;6.09;100.00
73267;BME280;61495;53.400;7.608;2024-01-30T01:33:09;102554.00;;;6.08;100.00
73267;BME280;61495;53.400;7.608;2024-01-30T01:35:35;102544.97;;;6.00;100.00
73267;BME280;61495;53.400;7.608;2024-01-30T01:38:00;102554.28;;;6.05;100.00
73267;BME280;61495;53.400;7.608;2024-01-30T01:40:26;102553.53;;;6.03;100.00
73267;BME280;61495;53.400;7.608;2024-01-30T01:42:54;102548.38;;;6.02;100.00
73267;BME280;61495;53.400;7.608;2024-01-30T01:45:20;102545.84;;;6.00;100.00
73267;BME280;61495;53.400;7.608;2024-01-30T01:47:48;102541.63;;;5.98;100.00
73267;BME280;61495;53.400;7.608;2024-01-30T01:50:16;102537.28;;;5.97;100.00
73267;BME280;61495;53.400;7.608;2024-01-30T01:52:48;102538.13;;;5.97;100.00
73267;BME280;61495;53.400;7.608;2024-01-30T01:55:14;102523.44;;;5.93;100.00
73267;BME280;61495;53.400;7.608;2024-01-30T01:57:41;102517.25;;;5.93;100.00
73267;BME280;61495;53.400;7.608;2024-01-30T02:00:08;102500.72;;;5.89;100.00
73267;BME280;61495;53.400;7.608;2024-01-30T02:02:36;102507.75;;;5.90;100.00
73267;BME280;61495;53.400;7.608;2024-01-30T02:05:02;102507.16;;;5.87;100.00
73267;BME280;61495;53.400;7.608;2024-01-30T02:07:28;102509.94;;;5.85;100.00
73267;BME280;61495;53.400;7.608;2024-01-30T02:09:53;102502.63;;;5.78;100.00
73267;BME280;61495;53.400;7.608;2024-01-30T02:12:19;102509.22;;;5.83;100.00
73267;BME280;61495;53.400;7.608;2024-01-30T02:14:48;102506.81;;;5.80;100.00
73267;BME280;61495;53.400;7.608;2024-01-30T02:17:14;102501.50;;;5.80;100.00
73267;BME280;61495;53.400;7.608;2024-01-30T02:19:40;102506.97;;;5.79;100.00
73267;BME280;61495;53.400;7.608;2024-01-30T02:22:05;102500.06;;;5.76;100.00
73267;BME280;61495;53.400;7.608;2024-01-30T02:24:31;102500.94;;;5.77;100.00
73267;BME280;61495;53.400;7.608;2024-01-30T02:26:57;102495.88;;;5.74;100.00
73267;BME280;61495;53.400;7.608;2024-01-30T02:29:22;102490.56;;;5.74;100.00
73267;BME280;61495;53.400;7.608;2024-01-30T02:31:48;102484.38;;;5.73;100.00
73267;BME280;61495;53.400;7.608;2024-01-30T02:34:13;102481.88;;;5.72;100.00
73267;BME280;61495;53.400;7.608;2024-01-30T02:36:42;102488.16;;;5.71;100.00
73267;BME280;61495;53.400;7.608;2024-01-30T02:39:07;102488.31;;;5.69;100.00
73267;BME280;61495;53.400;7.608;2024-01-30T02:41:33;102486.63;;;5.68;100.00
73267;BME280;61495;53.400;7.608;2024-01-30T02:43:58;102485.91;;;5.66;100.00
73267;BME280;61495;53.400;7.608;2024-01-30T02:46:23;102485.06;;;5.66;100.00
73267;BME280;61495;53.400;7.608;2024-01-30T02:48:49;102478.22;;;5.63;100.00
73267;BME280;61495;53.400;7.608;2024-01-30T02:51:14;102485.22;;;5.64;100.00
73267;BME280;61495;53.400;7.608;2024-01-30T02:53:39;102487.16;;;5.62;100.00
73267;BME280;61495;53.400;7.608;2024-01-30T02:56:05;102478.47;;;5.60;100.00
73267;BME280;61495;53.400;7.608;2024-01-30T02:58:31;102484.66;;;5.60;100.00
73267;BME280;61495;53.400;7.608;2024-01-30T03:00:56;102472.47;;;5.58;100.00
73267;BME280;61495;53.400;7.608;2024-01-30T03:03:21;102469.81;;;5.58;100.00
73267;BME280;61495;53.400;7.608;2024-01-30T03:05:47;102478.47;;;5.60;100.00
73267;BME280;61495;53.400;7.608;2024-01-30T03:08:13;102471.47;;;5.59;100.00
73267;BME280;61495;53.400;7.608;2024-01-30T03:10:38;102462.66;;;5.58;100.00
73267;BME280;61495;53.400;7.608;2024-01-30T03:13:04;102452.97;;;5.48;100.00
73267;BME280;61495;53.400;7.608;2024-01-30T03:15:29;102466.56;;;5.54;100.00
73267;BME280;61495;53.400;7.608;2024-01-30T03:17:54;102466.69;;;5.53;100.00
73267;BME280;61495;53.400;7.608;2024-01-30T03:20:20;102463.91;;;5.54;100.00
73267;BME280;61495;53.400;7.608;2024-01-30T03:22:45;102450.75;;;5.53;100.00
73267;BME280;61495;53.400;7.608;2024-01-30T03:25:10;102456.63;;;5.56;100.00
73267;BME280;61495;53.400;7.608;2024-01-30T03:27:36;102451.59;;;5.53;100.00
73267;BME280;61495;53.400;7.608;2024-01-30T03:30:01;102447.13;;;5.54;100.00
73267;BME280;61495;53.400;7.608;2024-01-30T03:32:27;102434.78;;;5.53;100.00
73267;BME280;61495;53.400;7.608;2024-01-30T03:34:52;102429.47;;;5.53;100.00
73267;BME280;61495;53.400;7.608;2024-01-30T03:37:18;102409.34;;;5.50;100.00
73267;BME280;61495;53.400;7.608;2024-01-30T03:39:43;102417.19;;;5.52;100.00
73267;BME280;61495;53.400;7.608;2024-01-30T03:42:08;102419.84;;;5.52;100.00
73267;BME280;61495;53.400;7.608;2024-01-30T03:44:34;102416.19;;;5.53;100.00
73267;BME280;61495;53.400;7.608;2024-01-30T03:46:59;102424.88;;;5.55;100.00
73267;BME280;61495;53.400;7.608;2024-01-30T03:49:24;102425.59;;;5.57;100.00
73267;BME280;61495;53.400;7.608;2024-01-30T03:51:53;102406.56;;;5.52;100.00
73267;BME280;61495;53.400;7.608;2024-01-30T03:54:18;102418.31;;;5.59;100.00
73267;BME280;61495;53.400;7.608;2024-01-30T03:56:43;102419.16;;;5.59;100.00
73267;BME280;61495;53.400;7.608;2024-01-30T03:59:09;102424.47;;;5.59;100.00
73267;BME280;61495;53.400;7.608;2024-01-30T04:01:34;102419.72;;;5.63;100.00
73267;BME280;61495;53.400;7.608;2024-01-30T04:03:59;102427.56;;;5.65;100.00
73267;BME280;61495;53.400;7.608;2024-01-30T04:06:25;102413.28;;;5.66;100.00
73267;BME280;61495;53.400;7.608;2024-01-30T04:08:51;102415.00;;;5.67;100.00
73267;BME280;61495;53.400;7.608;2024-01-30T04:11:18;102414.16;;;5.66;100.00
73267;BME280;61495;53.400;7.608;2024-01-30T04:13:43;102410.38;;;5.69;100.00
73267;BME280;61495;53.400;7.608;2024-01-30T04:16:19;102413.88;;;5.69;100.00
73267;BME280;61495;53.400;7.608;2024-01-30T04:18:45;102415.53;;;5.70;100.00
73267;BME280;61495;53.400;7.608;2024-01-30T04:21:10;102408.84;;;5.76;100.00
73267;BME280;61495;53.400;7.608;2024-01-30T04:23:35;102416.94;;;5.74;100.00
73267;BME280;61495;53.400;7.608;2024-01-30T04:26:01;102414.97;;;5.76;100.00
73267;BME280;61495;53.400;7.608;2024-01-30T04:28:26;102411.63;;;5.74;100.00
73267;BME280;61495;53.400;7.608;2024-01-30T04:30:51;102411.25;;;5.79;100.00
73267;BME280;61495;53.400;7.608;2024-01-30T04:33:17;102417.09;;;5.82;100.00
73267;BME280;61495;53.400;7.608;2024-01-30T04:35:43;102421.88;;;5.79;100.00
73267;BME280;61495;53.400;7.608;2024-01-30T04:38:08;102412.31;;;5.76;100.00
73267;BME280;61495;53.400;7.608;2024-01-30T04:40:34;102422.84;;;5.78;100.00
73267;BME280;61495;53.400;7.608;2024-01-30T04:42:59;102421.03;;;5.78;100.00
73267;BME280;61495;53.400;7.608;2024-01-30T04:45:24;102418.38;;;5.78;100.00
73267;BME280;61495;53.400;7.608;2024-01-30T04:47:50;102415.72;;;5.78;100.00
73267;BME280;61495;53.400;7.608;2024-01-30T04:50:15;102422.84;;;5.78;100.00
73267;BME280;61495;53.400;7.608;2024-01-30T04:52:41;102421.16;;;5.77;100.00
73267;BME280;61495;53.400;7.608;2024-01-30T04:55:06;102420.03;;;5.79;100.00
73267;BME280;61495;53.400;7.608;2024-01-30T04:57:32;102429.84;;;5.79;100.00
73267;BME280;61495;53.400;7.608;2024-01-30T04:59:59;102413.06;;;5.78;100.00
73267;BME280;61495;53.400;7.608;2024-01-30T05:02:24;102409.41;;;5.79;100.00
73267;BME280;61495;53.400;7.608;2024-01-30T05:04:49;102417.25;;;5.81;100.00
73267;BME280;61495;53.400;7.608;2024-01-30T05:07:15;102409.84;;;5.84;100.00
73267;BME280;61495;53.400;7.608;2024-01-30T05:09:40;102401.16;;;5.82;100.00
73267;BME280;61495;53.400;7.608;2024-01-30T05:12:07;102401.03;;;5.84;100.00
73267;BME280;61495;53.400;7.608;2024-01-30T05:14:32;102386.63;;;5.86;100.00
73267;BME280;61495;53.400;7.608;2024-01-30T05:16:57;102385.91;;;5.84;100.00
73267;BME280;61495;53.400;7.608;2024-01-30T05:19:23;102392.19;;;5.83;100.00
73267;BME280;61495;53.400;7.608;2024-01-30T05:21:49;102378.91;;;5.83;100.00
73267;BME280;61495;53.400;7.608;2024-01-30T05:24:14;102387.31;;;5.88;100.00
73267;BME280;61495;53.400;7.608;2024-01-30T05:26:39;102387.31;;;5.88;100.00
73267;BME280;61495;53.400;7.608;2024-01-30T05:29:05;102381.03;;;5.89;100.00
73267;BME280;61495;53.400;7.608;2024-01-30T05:31:31;102379.78;;;5.93;100.00
73267;BME280;61495;53.400;7.608;2024-01-30T05:33:57;102383.00;;;5.97;100.00
73267;BME280;61495;53.400;7.608;2024-01-30T05:36:22;102363.84;;;5.93;100.00
73267;BME280;61495;53.400;7.608;2024-01-30T05:38:47;102373.94;;;5.99;100.00
73267;BME280;61495;53.400;7.608;2024-01-30T05:41:13;102368.31;;;6.02;100.00
73267;BME280;61495;53.400;7.608;2024-01-30T05:43:39;102365.50;;;6.04;100.00
73267;BME280;61495;53.400;7.608;2024-01-30T05:46:06;102369.16;;;6.12;100.00
73267;BME280;61495;53.400;7.608;2024-01-30T05:48:31;102374.47;;;6.12;100.00
73267;BME280;61495;53.400;7.608;2024-01-30T05:50:58;102360.19;;;6.13;100.00
73267;BME280;61495;53.400;7.608;2024-01-30T05:53:25;102356.28;;;6.18;100.00
73267;BME280;61495;53.400;7.608;2024-01-30T05:55:50;102356.28;;;6.18;100.00
73267;BME280;61495;53.400;7.608;2024-01-30T05:58:15;102359.91;;;6.17;100.00
73267;BME280;61495;53.400;7.608;2024-01-30T06:00:41;102347.19;;;6.20;100.00
73267;BME280;61495;53.400;7.608;2024-01-30T06:03:07;102356.53;;;6.24;100.00
73267;BME280;61495;53.400;7.608;2024-01-30T06:05:32;102343.22;;;6.24;100.00
73267;BME280;61495;53.400;7.608;2024-01-30T06:07:58;102333.44;;;6.25;100.00
73267;BME280;61495;53.400;7.608;2024-01-30T06:10:23;102329.09;;;6.24;100.00
73267;BME280;61495;53.400;7.608;2024-01-30T06:12:48;102327.13;;;6.26;100.00
73267;BME280;61495;53.400;7.608;2024-01-30T06:15:14;102311.19;;;6.26;100.00
73267;BME280;61495;53.400;7.608;2024-01-30T06:17:39;102308.34;;;6.27;100.00
73267;BME280;61495;53.400;7.608;2024-01-30T06:20:05;102307.66;;;6.25;100.00
73267;BME280;61495;53.400;7.608;2024-01-30T06:22:31;102312.16;;;6.25;100.00
73267;BME280;61495;53.400;7.608;2024-01-30T06:24:56;102307.94;;;6.22;100.00
73267;BME280;61495;53.400;7.608;2024-01-30T06:27:22;102324.59;;;6.24;100.00
73267;BME280;61495;53.400;7.608;2024-01-30T06:29:47;102314.69;;;6.17;100.00
73267;BME280;61495;53.400;7.608;2024-01-30T06:32:12;102325.59;;;6.23;100.00
73267;BME280;61495;53.400;7.608;2024-01-30T06:34:38;102322.09;;;6.23;100.00
73267;BME280;61495;53.400;7.608;2024-01-30T06:37:05;102329.94;;;6.24;100.00
73267;BME280;61495;53.400;7.608;2024-01-30T06:39:30;102334.41;;;6.24;100.00
73267;BME280;61495;53.400;7.608;2024-01-30T06:41:56;102322.78;;;6.25;100.00
73267;BME280;61495;53.400;7.608;2024-01-30T06:44:21;102316.63;;;6.24;100.00
73267;BME280;61495;53.400;7.608;2024-01-30T06:46:47;102326.41;;;6.24;100.00
73267;BME280;61495;53.400;7.608;2024-01-30T06:49:12;102330.78;;;6.25;100.00
73267;BME280;61495;53.400;7.608;2024-01-30T06:51:38;102342.25;;;6.25;100.00
73267;BME280;61495;53.400;7.608;2024-01-30T06:54:03;102343.78;;;6.28;100.00
73267;BME280;61495;53.400;7.608;2024-01-30T06:56:29;102349.81;;;6.30;100.00
73267;BME280;61495;53.400;7.608;2024-01-30T06:58:55;102340.28;;;6.27;100.00
73267;BME280;61495;53.400;7.608;2024-01-30T07:01:20;102355.84;;;6.32;100.00
73267;BME280;61495;53.400;7.608;2024-01-30T07:03:46;102346.75;;;6.34;100.00
73267;BME280;61495;53.400;7.608;2024-01-30T07:06:11;102345.59;;;6.37;100.00
73267;BME280;61495;53.400;7.608;2024-01-30T07:08:37;102341.97;;;6.38;100.00
73267;BME280;61495;53.400;7.608;2024-01-30T07:11:06;102355.13;;;6.39;100.00
73267;BME280;61495;53.400;7.608;2024-01-30T07:13:32;102350.66;;;6.40;100.00
73267;BME280;61495;53.400;7.608;2024-01-30T07:15:57;102359.03;;;6.45;100.00
73267;BME280;61495;53.400;7.608;2024-01-30T07:18:23;102368.28;;;6.50;100.00
73267;BME280;61495;53.400;7.608;2024-01-30T07:20:48;102355.13;;;6.49;100.00
73267;BME280;61495;53.400;7.608;2024-01-30T07:23:15;102352.84;;;6.54;100.00
73267;BME280;61495;53.400;7.608;2024-01-30T07:25:45;102352.84;;;6.54;100.00
73267;BME280;61495;53.400;7.608;2024-01-30T07:28:13;102343.91;;;6.55;100.00
73267;BME280;61495;53.400;7.608;2024-01-30T07:30:42;102333.06;;;6.66;100.00
73267;BME280;61495;53.400;7.608;2024-01-30T07:33:08;102315.72;;;6.62;100.00
73267;BME280;61495;53.400;7.608;2024-01-30T07:35:34;102322.03;;;6.61;100.00
73267;BME280;61495;53.400;7.608;2024-01-30T07:37:59;102340.66;;;6.61;100.00
73267;BME280;61495;53.400;7.608;2024-01-30T07:40:24;102335.44;;;6.69;100.00
73267;BME280;61495;53.400;7.608;2024-01-30T07:42:50;102336.56;;;6.66;100.00
73267;BME280;61495;53.400;7.608;2024-01-30T07:45:15;102333.06;;;6.66;100.00
73267;BME280;61495;53.400;7.608;2024-01-30T07:47:41;102354.25;;;6.67;100.00
73267;BME280;61495;53.400;7.608;2024-01-30T07:50:07;102346.38;;;6.66;100.00
73267;BME280;61495;53.400;7.608;2024-01-30T07:52:38;102341.78;;;6.68;100.00
73267;BME280;61495;53.400;7.608;2024-01-30T07:55:04;102327.44;;;6.69;100.00
73267;BME280;61495;53.400;7.608;2024-01-30T07:57:30;102340.47;;;6.72;100.00
73267;BME280;61495;53.400;7.608;2024-01-30T07:59:55;102341.16;;;6.74;100.00
73267;BME280;61495;53.400;7.608;2024-01-30T08:02:22;102344.38;;;6.78;100.00
73267;BME280;61495;53.400;7.608;2024-01-30T08:04:47;102341.59;;;6.79;100.00
73267;BME280;61495;53.400;7.608;2024-01-30T08:07:14;102336.25;;;6.79;100.00
73267;BME280;61495;53.400;7.608;2024-01-30T08:09:39;102343.97;;;6.82;100.00
73267;BME280;61495;53.400;7.608;2024-01-30T08:12:05;102344.66;;;6.84;100.00
73267;BME280;61495;53.400;7.608;2024-01-30T08:14:30;102343.50;;;6.87;100.00
73267;BME280;61495;53.400;7.608;2024-01-30T08:16:56;102348.00;;;6.86;100.00
73267;BME280;61495;53.400;7.608;2024-01-30T08:19:21;102337.34;;;6.86;100.00
73267;BME280;61495;53.400;7.608;2024-01-30T08:21:46;102318.56;;;6.88;100.00
73267;BME280;61495;53.400;7.608;2024-01-30T08:24:12;102333.41;;;6.90;100.00
73267;BME280;61495;53.400;7.608;2024-01-30T08:26:37;102335.22;;;6.90;100.00
73267;BME280;61495;53.400;7.608;2024-01-30T08:29:03;102332.66;;;6.98;100.00
73267;BME280;61495;53.400;7.608;2024-01-30T08:31:29;102330.84;;;6.98;100.00
73267;BME280;61495;53.400;7.608;2024-01-30T08:33:54;102323.56;;;7.00;100.00
73267;BME280;61495;53.400;7.608;2024-01-30T08:36:20;102336.72;;;7.02;100.00
73267;BME280;61495;53.400;7.608;2024-01-30T08:38:45;102362.53;;;7.01;100.00
73267;BME280;61495;53.400;7.608;2024-01-30T08:41:11;102350.72;;;7.04;100.00
73267;BME280;61495;53.400;7.608;2024-01-30T08:43:36;102358.59;;;7.05;100.00
73267;BME280;61495;53.400;7.608;2024-01-30T08:46:02;102364.78;;;7.06;100.00
73267;BME280;61495;53.400;7.608;2024-01-30T08:48:27;102361.25;;;7.05;100.00
73267;BME280;61495;53.400;7.608;2024-01-30T08:50:53;102355.78;;;7.07;100.00
73267;BME280;61495;53.400;7.608;2024-01-30T08:53:18;102355.34;;;7.11;100.00
73267;BME280;61495;53.400;7.608;2024-01-30T08:55:44;102359.41;;;7.15;100.00
73267;BME280;61495;53.400;7.608;2024-01-30T08:58:09;102360.22;;;7.16;100.00
73267;BME280;61495;53.400;7.608;2024-01-30T09:00:35;102367.41;;;7.15;100.00
73267;BME280;61495;53.400;7.608;2024-01-30T09:03:00;102355.44;;;7.19;100.00
73267;BME280;61495;53.400;7.608;2024-01-30T09:05:26;102350.97;;;7.20;100.00
73267;BME280;61495;53.400;7.608;2024-01-30T09:07:51;102351.50;;;7.23;100.00
73267;BME280;61495;53.400;7.608;2024-01-30T09:10:16;102353.88;;;7.26;100.00
73267;BME280;61495;53.400;7.608;2024-01-30T09:12:42;102368.72;;;7.29;100.00
73267;BME280;61495;53.400;7.608;2024-01-30T09:15:07;102373.91;;;7.31;100.00
73267;BME280;61495;53.400;7.608;2024-01-30T09:17:33;102373.91;;;7.31;100.00
73267;BME280;61495;53.400;7.608;2024-01-30T09:19:58;102371.94;;;7.33;100.00
73267;BME280;61495;53.400;7.608;2024-01-30T09:22:24;102369.97;;;7.35;100.00
73267;BME280;61495;53.400;7.608;2024-01-30T09:24:50;102382.03;;;7.39;100.00
73267;BME280;61495;53.400;7.608;2024-01-30T09:27:15;102383.69;;;7.40;100.00
73267;BME280;61495;53.400;7.608;2024-01-30T09:29:40;102379.75;;;7.44;100.00
73267;BME280;61495;53.400;7.608;2024-01-30T09:32:06;102377.25;;;7.42;100.00
73267;BME280;61495;53.400;7.608;2024-01-30T09:34:32;102391.50;;;7.51;100.00
73267;BME280;61495;53.400;7.608;2024-01-30T09:36:59;102378.84;;;7.53;100.00
73267;BME280;61495;53.400;7.608;2024-01-30T09:39:25;102385.56;;;7.57;100.00
73267;BME280;61495;53.400;7.608;2024-01-30T09:44:29;102385.66;;;7.65;100.00
73267;BME280;61495;53.400;7.608;2024-01-30T09:46:55;102374.69;;;7.68;100.00
73267;BME280;61495;53.400;7.608;2024-01-30T09:49:24;102368.06;;;7.72;100.00
73267;BME280;61495;53.400;7.608;2024-01-30T09:51:51;102373.13;;;7.75;100.00
73267;BME280;61495;53.400;7.608;2024-01-30T09:54:18;102374.47;;;7.79;100.00
73267;BME280;61495;53.400;7.608;2024-01-30T09:56:44;102377.81;;;7.81;100.00
73267;BME280;61495;53.400;7.608;2024-01-30T09:59:10;102377.38;;;7.86;100.00
73267;BME280;61495;53.400;7.608;2024-01-30T10:01:36;102377.22;;;7.87;100.00
73267;BME280;61495;53.400;7.608;2024-01-30T10:04:01;102378.31;;;7.94;100.00
73267;BME280;61495;53.400;7.608;2024-01-30T10:06:27;102368.16;;;7.98;100.00
73267;BME280;61495;53.400;7.608;2024-01-30T10:08:53;102366.16;;;8.00;100.00
73267;BME280;61495;53.400;7.608;2024-01-30T10:11:18;102367.56;;;8.04;100.00
73267;BME280;61495;53.400;7.608;2024-01-30T10:13:43;102359.25;;;8.07;100.00
73267;BME280;61495;53.400;7.608;2024-01-30T10:16:09;102365.13;;;8.10;100.00
73267;BME280;61495;53.400;7.608;2024-01-30T10:18:34;102366.78;;;8.11;100.00
73267;BME280;61495;53.400;7.608;2024-01-30T10:20:59;102369.16;;;8.14;100.00
73267;BME280;61495;53.400;7.608;2024-01-30T10:23:25;102363.19;;;8.20;100.00
73267;BME280;61495;53.400;7.608;2024-01-30T10:25:51;102360.38;;;8.22;100.00
73267;BME280;61495;53.400;7.608;2024-01-30T10:28:17;102353.63;;;8.27;100.00
73267;BME280;61495;53.400;7.608;2024-01-30T10:30:43;102352.47;;;8.30;100.00
73267;BME280;61495;53.400;7.608;2024-01-30T10:33:08;102350.16;;;8.35;100.00
73267;BME280;61495;53.400;7.608;2024-01-30T10:35:33;102340.00;;;8.38;100.00
73267;BME280;61495;53.400;7.608;2024-01-30T10:37:59;102354.75;;;8.43;100.00
73267;BME280;61495;53.400;7.608;2024-01-30T10:40:28;102341.59;;;8.49;100.00
73267;BME280;61495;53.400;7.608;2024-01-30T10:42:55;102344.94;;;8.51;100.00
73267;BME280;61495;53.400;7.608;2024-01-30T10:45:22;102351.50;;;8.57;100.00
73267;BME280;61495;53.400;7.608;2024-01-30T10:47:53;102347.66;;;8.59;100.00
73267;BME280;61495;53.400;7.608;2024-01-30T10:50:18;102357.50;;;8.59;100.00
73267;BME280;61495;53.400;7.608;2024-01-30T10:52:45;102353.53;;;8.63;100.00
73267;BME280;61495;53.400;7.608;2024-01-30T10:55:12;102348.72;;;8.66;100.00
73267;BME280;61495;53.400;7.608;2024-01-30T10:57:39;102356.56;;;8.68;100.00
73267;BME280;61495;53.400;7.608;2024-01-30T11:00:09;102343.91;;;8.70;100.00
73267;BME280;61495;53.400;7.608;2024-01-30T11:02:38;102351.63;;;8.73;100.00
73267;BME280;61495;53.400;7.608;2024-01-30T11:05:04;102360.13;;;8.76;100.00
73267;BME280;61495;53.400;7.608;2024-01-30T11:07:30;102353.97;;;8.76;100.00
73267;BME280;61495;53.400;7.608;2024-01-30T11:12:26;102360.34;;;8.83;100.00
73267;BME280;61495;53.400;7.608;2024-01-30T11:15:13;102349.34;;;8.86;100.00
73267;BME280;61495;53.400;7.608;2024-01-30T11:17:43;102351.69;;;8.89;100.00
73267;BME280;61495;53.400;7.608;2024-01-30T11:20:14;102350.41;;;8.93;100.00
73267;BME280;61495;53.400;7.608;2024-01-30T11:22:45;102346.38;;;8.97;100.00
73267;BME280;61495;53.400;7.608;2024-01-30T11:25:14;102348.06;;;8.98;100.00
73267;BME280;61495;53.400;7.608;2024-01-30T11:27:41;102341.44;;;9.02;100.00
73267;BME280;61495;53.400;7.608;2024-01-30T11:30:07;102342.09;;;9.04;100.00
73267;BME280;61495;53.400;7.608;2024-01-30T11:32:33;102339.75;;;9.09;100.00
73267;BME280;61495;53.400;7.608;2024-01-30T11:34:58;102342.81;;;9.14;100.00
73267;BME280;61495;53.400;7.608;2024-01-30T11:37:25;102340.81;;;9.16;100.00
73267;BME280;61495;53.400;7.608;2024-01-30T11:39:53;102344.00;;;9.20;100.00
73267;BME280;61495;53.400;7.608;2024-01-30T11:42:19;102336.50;;;9.23;100.00
73267;BME280;61495;53.400;7.608;2024-01-30T11:44:48;102337.84;;;9.27;100.00
73267;BME280;61495;53.400;7.608;2024-01-30T11:47:14;102341.22;;;9.29;100.00
73267;BME280;61495;53.400;7.608;2024-01-30T11:49:39;102339.03;;;9.33;100.00
73267;BME280;61495;53.400;7.608;2024-01-30T11:52:05;102336.03;;;9.36;100.00
73267;BME280;61495;53.400;7.608;2024-01-30T11:54:30;102325.84;;;9.39;100.00
73267;BME280;61495;53.400;7.608;2024-01-30T11:56:56;102339.09;;;9.41;100.00
73267;BME280;61495;53.400;7.608;2024-01-30T11:59:21;102342.41;;;9.43;100.00
73267;BME280;61495;53.400;7.608;2024-01-30T12:01:47;102328.19;;;9.42;100.00
73267;BME280;61495;53.400;7.608;2024-01-30T12:04:12;102323.69;;;9.43;100.00
73267;BME280;61495;53.400;7.608;2024-01-30T12:06:38;102331.53;;;9.44;100.00
73267;BME280;61495;53.400;7.608;2024-01-30T12:09:04;102329.56;;;9.46;100.00
73267;BME280;61495;53.400;7.608;2024-01-30T12:11:30;102321.22;;;9.49;100.00
73267;BME280;61495;53.400;7.608;2024-01-30T12:13:55;102323.19;;;9.47;100.00
73267;BME280;61495;53.400;7.608;2024-01-30T12:16:21;102316.53;;;9.52;100.00
73267;BME280;61495;53.400;7.608;2024-01-30T12:18:47;102332.44;;;9.53;100.00
73267;BME280;61495;53.400;7.608;2024-01-30T12:21:16;102319.19;;;9.52;100.00
73267;BME280;61495;53.400;7.608;2024-01-30T12:23:42;102324.22;;;9.55;100.00
73267;BME280;61495;53.400;7.608;2024-01-30T12:26:07;102320.56;;;9.56;100.00
73267;BME280;61495;53.400;7.608;2024-01-30T12:28:33;102327.56;;;9.57;100.00
73267;BME280;61495;53.400;7.608;2024-01-30T12:31:02;102321.38;;;9.56;100.00
73267;BME280;61495;53.400;7.608;2024-01-30T12:33:29;102319.88;;;9.54;100.00
73267;BME280;61495;53.400;7.608;2024-01-30T12:35:55;102333.94;;;9.56;100.00
73267;BME280;61495;53.400;7.608;2024-01-30T12:38:20;102322.53;;;9.54;100.00
73267;BME280;61495;53.400;7.608;2024-01-30T12:40:46;102325.91;;;9.56;100.00
73267;BME280;61495;53.400;7.608;2024-01-30T12:43:13;102325.91;;;9.56;100.00
73267;BME280;61495;53.400;7.608;2024-01-30T12:45:38;102315.53;;;9.53;100.00
73267;BME280;61495;53.400;7.608;2024-01-30T12:48:04;102320.56;;;9.56;100.00